sensor_id;sensor_type;location;lat;lon;timestamp;pressure;altitude;pressure_sealevel;temperature;humidity
11212;BME280;5663;50.864;12.096;2022-08-20T00:02:16;99172.41;;;20.65;75.39
11212;BME280;5663;50.864;12.096;2022-08-20T00:04:46;99164.78;;;20.62;75.71
11212;BME280;5663;50.864;12.096;2022-08-20T00:11:08;99163.81;;;20.63;75.04
11212;BME280;5663;50.864;12.096;2022-08-20T00:13:43;99150.19;;;20.58;75.47
11212;BME280;5663;50.864;12.096;2022-08-20T00:16:21;99147.28;;;20.61;74.83
11212;BME280;5663;50.864;12.096;2022-08-20T00:19:25;99154.22;;;20.62;74.90
11212;BME280;5663;50.864;12.096;2022-08-20T00:22:10;99150.63;;;20.63;75.39
11212;BME280;5663;50.864;12.096;2022-08-20T00:25:12;99154.91;;;20.64;74.87
11212;BME280;5663;50.864;12.096;2022-08-20T00:27:56;99155.06;;;20.63;74.52
11212;BME280;5663;50.864;12.096;2022-08-20T00:30:44;99151.56;;;20.62;74.57
11212;BME280;5663;50.864;12.096;2022-08-20T00:33:33;99151.56;;;20.62;74.91
11212;BME280;5663;50.864;12.096;2022-08-20T00:36:14;99152.56;;;20.61;74.17
11212;BME280;5663;50.864;12.096;2022-08-20T00:39:09;99149.25;;;20.59;73.65
11212;BME280;5663;50.864;12.096;2022-08-20T00:41:53;99154.22;;;20.62;74.34
11212;BME280;5663;50.864;12.096;2022-08-20T00:44:54;99162.00;;;20.64;74.64
11212;BME280;5663;50.864;12.096;2022-08-20T00:48:12;99155.75;;;20.65;74.83
11212;BME280;5663;50.864;12.096;2022-08-20T01:42:50;99159.00;;;20.49;75.40
11212;BME280;5663;50.864;12.096;2022-08-20T01:48:30;99150.38;;;20.47;76.16
11212;BME280;5663;50.864;12.096;2022-08-20T01:51:13;99153.72;;;20.49;76.96
11212;BME280;5663;50.864;12.096;2022-08-20T02:55:45;99167.78;;;20.40;77.29
11212;BME280;5663;50.864;12.096;2022-08-20T02:58:20;99172.09;;;20.41;77.03
11212;BME280;5663;50.864;12.096;2022-08-20T03:00:56;99169.34;;;20.33;76.76
11212;BME280;5663;50.864;12.096;2022-08-20T03:34:53;99162.03;;;20.27;75.50
11212;BME280;5663;50.864;12.096;2022-08-20T03:40:46;99163.25;;;20.23;75.84
11212;BME280;5663;50.864;12.096;2022-08-20T03:43:17;99164.13;;;20.23;76.32
11212;BME280;5663;50.864;12.096;2022-08-20T03:45:53;99168.25;;;20.26;75.97
11212;BME280;5663;50.864;12.096;2022-08-20T03:48:25;99160.50;;;20.24;76.42
11212;BME280;5663;50.864;12.096;2022-08-20T03:50:57;99172.59;;;20.27;76.60
11212;BME280;5663;50.864;12.096;2022-08-20T03:53:32;99171.59;;;20.28;77.04
11212;BME280;5663;50.864;12.096;2022-08-20T03:56:04;99171.59;;;20.28;77.15
11212;BME280;5663;50.864;12.096;2022-08-20T03:58:49;99159.41;;;20.17;76.40
11212;BME280;5663;50.864;12.096;2022-08-20T04:01:55;99178.81;;;20.26;76.31
11212;BME280;5663;50.864;12.096;2022-08-20T04:04:58;99178.44;;;20.21;76.01
11212;BME280;5663;50.864;12.096;2022-08-20T04:07:34;99175.78;;;20.21;76.33
11212;BME280;5663;50.864;12.096;2022-08-20T04:10:10;99180.78;;;20.24;75.85
11212;BME280;5663;50.864;12.096;2022-08-20T04:12:42;99184.09;;;20.26;75.75
11212;BME280;5663;50.864;12.096;2022-08-20T04:15:16;99177.44;;;20.22;76.26
11212;BME280;5663;50.864;12.096;2022-08-20T04:18:06;99188.44;;;20.27;76.81
11212;BME280;5663;50.864;12.096;2022-08-20T04:20:38;99193.84;;;20.25;77.30
11212;BME280;5663;50.864;12.096;2022-08-20T04:23:13;99194.94;;;20.23;77.33
11212;BME280;5663;50.864;12.096;2022-08-20T04:25:51;99189.66;;;20.23;77.62
11212;BME280;5663;50.864;12.096;2022-08-20T05:42:18;99221.94;;;20.16;78.66
11212;BME280;5663;50.864;12.096;2022-08-20T05:44:56;99226.63;;;20.23;79.16
11212;BME280;5663;50.864;12.096;2022-08-20T05:47:39;99224.56;;;20.26;79.26
11212;BME280;5663;50.864;12.096;2022-08-20T05:50:21;99226.25;;;20.27;78.14
11212;BME280;5663;50.864;12.096;2022-08-20T05:53:13;99224.16;;;20.31;78.38
11212;BME280;5663;50.864;12.096;2022-08-20T05:55:55;99220.53;;;20.32;77.88
11212;BME280;5663;50.864;12.096;2022-08-20T05:58:49;99225.81;;;20.32;78.08
11212;BME280;5663;50.864;12.096;2022-08-20T06:09:09;99231.47;;;20.37;78.60
11212;BME280;5663;50.864;12.096;2022-08-20T06:12:21;99228.69;;;20.38;78.64
11212;BME280;5663;50.864;12.096;2022-08-20T06:15:53;99231.88;;;20.42;78.30
11212;BME280;5663;50.864;12.096;2022-08-20T06:26:46;99242.16;;;20.45;78.36
11212;BME280;5663;50.864;12.096;2022-08-20T23:49:25;99393.72;;;20.73;75.65
11212;BME280;5663;50.864;12.096;2022-08-20T23:52:17;99396.50;;;20.72;75.84
11212;BME280;5663;50.864;12.096;2022-08-20T23:55:32;99394.84;;;20.71;75.76
11212;BME280;5663;50.864;12.096;2022-08-20T23:58:17;99396.78;;;20.69;76.00
